ENSH/SVJ METAR and TAF weather

Enter ICAO airport designator
Station Type Date Time Source
ENSH METAR 2022/06/27 07:20 UTC NOAA

ENSH 270720Z 12011KT CAVOK 22/11 Q1017 RMK WIND 150FT /////KT


Station Type Date Time Source
ENSH Decoded METAR 2022/06/27 07:20 UTC NOAA

Svolvaer / Helle, Norway (ENSH) 68-15N 014-40E 9M
Jun 27, 2022 - 03:20 AM EDT / 2022.06.27 0720 UTC
Wind: from the ESE (120 degrees) at 13 MPH (11 KT):0
Visibility: greater than 7 mile(s):0
Temperature: 71 F (22 C)
Dew Point: 51 F (11 C)
Relative Humidity: 49%
Pressure (altimeter): 30.03 in. Hg (1017 hPa)
ob: ENSH 270720Z 12011KT CAVOK 22/11 Q1017 RMK WIND 150FT /////KT
cycle: 7

Station Type Date Time Source
ENSH TAF UTC NOAA

Error!

Example: see airport list